Time;durP1;ratioP1;P1;durP2;ratioP2;P2;SDS_P1;SDS_P2;PMS_P1;PMS_P2;Temp;Humidity;BMP_temperature;BMP_pressure;BME280_temperature;BME280_humidity;BME280_pressure;Samples;Min_cycle;Max_cycle;Signal;HPM_P1;HPM_P2
2022/03/18 00:00:38;;;;;;;2.67;0.93;;;8.70;71.50;;;;;;5045242;28;20054;-70
2022/03/18 00:03:13;;;;;;;3.97;1.20;;;8.70;71.50;;;;;;5049458;28;20371;-71
2022/03/18 00:05:41;;;;;;;3.75;1.20;;;8.70;71.70;;;;;;5066189;28;20040;-71
2022/03/18 00:08:08;;;;;;;4.28;0.93;;;8.70;71.80;;;;;;5057457;28;20040;-70
2022/03/18 00:10:35;;;;;;;4.43;1.40;;;8.70;71.70;;;;;;5062528;28;20072;-68
2022/03/18 00:13:03;;;;;;;5.30;1.50;;;8.70;71.70;;;;;;5062710;28;20041;-69
2022/03/18 00:15:30;;;;;;;5.35;1.23;;;8.70;71.70;;;;;;5065725;28;20049;-70
2022/03/18 00:17:57;;;;;;;4.30;1.08;;;8.60;71.80;;;;;;5059399;28;20056;-69
2022/03/18 00:20:26;;;;;;;2.60;0.90;;;8.60;71.90;;;;;;5060796;28;20043;-70
2022/03/18 00:22:53;;;;;;;4.55;1.10;;;8.60;72.00;;;;;;5062426;28;20090;-70
2022/03/18 00:25:21;;;;;;;4.85;0.90;;;8.60;72.20;;;;;;5065564;28;20051;-69
2022/03/18 00:27:48;;;;;;;3.50;0.85;;;8.60;72.30;;;;;;5063900;28;20836;-69
2022/03/18 00:30:17;;;;;;;5.70;1.70;;;8.60;72.30;;;;;;5049628;28;20052;-69
2022/03/18 00:32:45;;;;;;;6.15;1.17;;;8.60;72.30;;;;;;5060850;28;20064;-70
2022/03/18 00:35:12;;;;;;;3.35;1.40;;;8.60;72.20;;;;;;5047251;28;20067;-69
2022/03/18 00:37:41;;;;;;;3.80;1.52;;;8.60;72.20;;;;;;5065837;28;20040;-70
2022/03/18 00:40:10;;;;;;;9.63;1.70;;;8.60;72.10;;;;;;5061962;28;20481;-69
2022/03/18 00:42:37;;;;;;;5.13;1.60;;;8.50;72.00;;;;;;5062241;28;20067;-70
2022/03/18 00:45:05;;;;;;;7.30;1.10;;;8.60;71.90;;;;;;5061284;28;20046;-70
2022/03/18 00:53:03;;;;;;;5.65;1.63;;;8.50;71.80;;;;;;5059927;28;21036;-69
2022/03/18 00:55:29;;;;;;;3.13;1.33;;;8.60;71.70;;;;;;5060176;28;20040;-70
2022/03/18 00:57:56;;;;;;;5.97;1.30;;;8.50;71.80;;;;;;5060202;28;20043;-70
2022/03/18 01:00:24;;;;;;;4.47;1.30;;;8.50;72.00;;;;;;5054105;28;20040;-70
2022/03/18 01:02:51;;;;;;;2.92;1.08;;;8.50;72.10;;;;;;5059688;28;20052;-70
2022/03/18 01:05:18;;;;;;;3.63;0.90;;;8.50;72.10;;;;;;5062637;28;20080;-70
2022/03/18 01:07:45;;;;;;;2.75;0.85;;;8.40;72.20;;;;;;5055225;28;20127;-70
2022/03/18 01:10:13;;;;;;;4.03;0.98;;;8.40;72.20;;;;;;5058465;28;20052;-70
2022/03/18 01:12:40;;;;;;;6.85;1.30;;;8.40;72.00;;;;;;5057573;28;20048;-70
2022/03/18 01:15:08;;;;;;;4.45;1.00;;;8.40;72.10;;;;;;5060111;28;20053;-70
2022/03/18 01:17:35;;;;;;;4.30;1.35;;;8.40;72.10;;;;;;5059781;28;20028;-70
2022/03/18 01:20:03;;;;;;;3.70;1.02;;;8.40;72.10;;;;;;5061054;28;20135;-71
2022/03/18 01:22:30;;;;;;;3.63;1.02;;;8.30;72.10;;;;;;5059860;28;20055;-68
2022/03/18 01:24:57;;;;;;;5.55;1.20;;;8.30;72.20;;;;;;5060086;28;20123;-70
2022/03/18 01:27:26;;;;;;;2.85;1.10;;;8.30;72.30;;;;;;5057538;28;20486;-70
2022/03/18 01:29:52;;;;;;;4.57;1.13;;;8.30;72.20;;;;;;5061307;28;20114;-70
2022/03/18 01:32:19;;;;;;;5.53;1.25;;;8.30;72.10;;;;;;5060293;28;20465;-70
2022/03/18 01:34:46;;;;;;;5.90;1.85;;;8.30;72.30;;;;;;5064579;28;20141;-71
2022/03/18 01:37:13;;;;;;;7.57;2.40;;;8.30;72.50;;;;;;5065292;28;20044;-70
2022/03/18 01:39:40;;;;;;;5.75;1.25;;;8.20;72.40;;;;;;5058086;28;20501;-68
2022/03/18 01:42:07;;;;;;;3.15;1.02;;;8.20;72.40;;;;;;5066060;28;20072;-70
2022/03/18 01:44:41;;;;;;;2.00;1.02;;;8.20;72.50;;;;;;5070759;28;20133;-70
2022/03/18 01:47:09;;;;;;;3.00;1.02;;;8.10;72.50;;;;;;5066828;28;20057;-70
2022/03/18 01:49:37;;;;;;;4.72;1.30;;;8.10;72.60;;;;;;5068450;28;20041;-70
2022/03/18 01:52:09;;;;;;;4.85;1.08;;;8.10;72.70;;;;;;5065227;28;20051;-69
2022/03/18 01:54:47;;;;;;;5.93;1.40;;;8.10;72.70;;;;;;5065403;28;20036;-71
2022/03/18 01:57:17;;;;;;;5.15;0.93;;;8.10;72.70;;;;;;5063928;28;20072;-70
2022/03/18 01:59:45;;;;;;;6.75;2.75;;;8.10;72.80;;;;;;5063540;28;20044;-70
2022/03/18 02:02:13;;;;;;;4.32;1.15;;;8.00;72.80;;;;;;5059899;28;20140;-69
2022/03/18 02:04:40;;;;;;;3.55;1.98;;;8.00;72.90;;;;;;5071369;28;20089;-69
2022/03/18 02:07:11;;;;;;;4.20;1.27;;;8.10;73.00;;;;;;5063483;28;20041;-69
2022/03/18 02:09:39;;;;;;;7.38;1.10;;;8.00;73.00;;;;;;5053886;28;20068;-69
2022/03/18 02:12:09;;;;;;;3.72;1.20;;;8.00;73.10;;;;;;5065633;28;20114;-69
2022/03/18 02:14:38;;;;;;;4.43;1.77;;;8.00;73.20;;;;;;5070110;28;20074;-69
2022/03/18 02:17:08;;;;;;;5.28;1.52;;;8.00;73.30;;;;;;5063409;28;20044;-71
2022/03/18 02:19:36;;;;;;;4.03;1.17;;;8.00;73.30;;;;;;5067127;28;20063;-70
2022/03/18 02:22:09;;;;;;;4.68;1.10;;;7.90;73.40;;;;;;5063942;28;20052;-71
2022/03/18 02:24:39;;;;;;;5.35;1.30;;;7.90;73.40;;;;;;5062481;28;20040;-69
2022/03/18 02:27:06;;;;;;;6.07;1.50;;;7.90;73.50;;;;;;5068296;28;20036;-69
2022/03/18 02:29:33;;;;;;;5.20;1.55;;;7.90;73.50;;;;;;5073215;28;20103;-70
2022/03/18 02:32:01;;;;;;;7.05;2.05;;;7.80;73.50;;;;;;5053910;28;20083;-69
2022/03/18 02:34:31;;;;;;;10.65;1.75;;;7.80;73.60;;;;;;5065099;28;20056;-69
2022/03/18 02:37:04;;;;;;;4.78;1.55;;;7.80;73.80;;;;;;5047936;28;20046;-70
2022/03/18 02:39:32;;;;;;;6.47;1.42;;;7.80;73.90;;;;;;5042822;28;20170;-69
2022/03/18 02:42:00;;;;;;;3.58;1.10;;;7.80;73.80;;;;;;5056252;28;20766;-69
2022/03/18 02:44:28;;;;;;;2.80;1.20;;;7.80;73.80;;;;;;5064982;28;20044;-70
2022/03/18 02:46:58;;;;;;;8.30;1.48;;;7.80;73.80;;;;;;5056338;28;20049;-69
2022/03/18 02:49:26;;;;;;;7.35;1.13;;;7.80;73.90;;;;;;5063349;28;22028;-69
2022/03/18 02:51:53;;;;;;;5.55;1.38;;;7.80;73.90;;;;;;5062208;28;20130;-68
2022/03/18 02:54:20;;;;;;;6.47;1.60;;;7.80;74.00;;;;;;5066604;28;20056;-69
2022/03/18 02:56:47;;;;;;;5.47;1.85;;;7.70;74.10;;;;;;5066026;28;20036;-69
2022/03/18 02:59:16;;;;;;;3.50;1.10;;;7.70;74.20;;;;;;5067213;28;20052;-69
2022/03/18 03:01:43;;;;;;;7.25;1.60;;;7.70;74.20;;;;;;5063965;28;20052;-69
2022/03/18 03:04:11;;;;;;;3.53;1.25;;;7.70;74.30;;;;;;5067012;28;20048;-69
2022/03/18 03:09:23;;;;;;;2.95;1.13;;;7.70;74.40;;;;;;5067805;28;20033;-69
2022/03/18 03:11:52;;;;;;;6.63;2.00;;;7.70;74.60;;;;;;5050532;28;20040;-69
2022/03/18 03:14:20;;;;;;;5.30;1.48;;;7.70;74.60;;;;;;5070726;28;20167;-71
2022/03/18 03:16:47;;;;;;;3.38;1.20;;;7.70;74.70;;;;;;5063440;28;20045;-70
2022/03/18 03:19:15;;;;;;;7.25;1.80;;;7.70;74.70;;;;;;5068379;28;20126;-69
2022/03/18 03:21:42;;;;;;;6.53;2.00;;;7.70;74.60;;;;;;5067463;28;20048;-70
2022/03/18 03:24:09;;;;;;;3.72;1.33;;;7.70;74.60;;;;;;5068034;28;20055;-69
2022/03/18 03:26:36;;;;;;;7.35;1.25;;;7.70;74.60;;;;;;5062184;28;20041;-69
2022/03/18 03:29:03;;;;;;;5.70;1.95;;;7.70;74.70;;;;;;5070115;28;20123;-69
2022/03/18 03:31:32;;;;;;;6.72;1.63;;;7.70;74.60;;;;;;5063036;28;20046;-69
2022/03/18 03:33:59;;;;;;;7.70;1.50;;;7.60;74.60;;;;;;5066644;28;20131;-69
2022/03/18 03:36:26;;;;;;;6.32;1.70;;;7.60;74.70;;;;;;5062429;28;20051;-69
2022/03/18 03:38:53;;;;;;;5.68;1.70;;;7.60;74.80;;;;;;5061035;28;20046;-70
2022/03/18 03:41:22;;;;;;;6.43;1.40;;;7.60;74.80;;;;;;5066778;28;20040;-70
2022/03/18 03:43:49;;;;;;;8.88;1.98;;;7.50;74.90;;;;;;5063857;28;20123;-71
2022/03/18 03:46:16;;;;;;;7.68;1.58;;;7.50;75.00;;;;;;5061734;28;20054;-69
2022/03/18 03:48:45;;;;;;;4.47;1.45;;;7.50;75.10;;;;;;5063624;28;20149;-69
2022/03/18 03:51:12;;;;;;;4.32;1.80;;;7.50;75.10;;;;;;5063878;28;20052;-70
2022/03/18 03:53:39;;;;;;;5.47;1.48;;;7.50;75.10;;;;;;5051569;28;20051;-69
2022/03/18 03:56:06;;;;;;;4.75;1.33;;;7.50;75.10;;;;;;5064219;28;20073;-69
2022/03/18 03:58:33;;;;;;;9.05;2.80;;;7.50;75.20;;;;;;5063296;28;20041;-70
2022/03/18 04:01:00;;;;;;;4.15;1.63;;;7.40;75.20;;;;;;5057631;28;20455;-69
2022/03/18 04:03:28;;;;;;;7.00;2.33;;;7.40;75.20;;;;;;5058134;28;20051;-69
2022/03/18 04:05:56;;;;;;;6.25;1.48;;;7.40;75.30;;;;;;5066058;28;20052;-69
2022/03/18 04:08:23;;;;;;;7.88;1.70;;;7.40;75.40;;;;;;5056890;28;20041;-69
2022/03/18 04:10:50;;;;;;;4.53;1.58;;;7.30;75.50;;;;;;5060847;28;20040;-70
2022/03/18 04:13:17;;;;;;;8.57;1.92;;;7.30;75.50;;;;;;5061113;28;20125;-69
2022/03/18 04:15:44;;;;;;;4.85;1.58;;;7.30;75.50;;;;;;5059815;28;20036;-69
2022/03/18 04:18:11;;;;;;;6.07;1.83;;;7.30;75.50;;;;;;5050297;28;20526;-69
2022/03/18 04:20:38;;;;;;;5.05;1.45;;;7.30;75.50;;;;;;5060397;28;20044;-70
2022/03/18 04:23:07;;;;;;;5.78;1.65;;;7.30;75.50;;;;;;5064917;28;20642;-69
2022/03/18 04:25:34;;;;;;;6.82;1.88;;;7.30;75.50;;;;;;5041247;28;20083;-70
2022/03/18 04:28:01;;;;;;;4.18;1.75;;;7.30;75.50;;;;;;5058671;28;20050;-70
2022/03/18 04:30:28;;;;;;;7.95;1.70;;;7.30;75.50;;;;;;5062514;28;20051;-69
2022/03/18 04:32:55;;;;;;;6.63;1.85;;;7.30;75.50;;;;;;5065012;28;20077;-70
2022/03/18 04:35:23;;;;;;;7.45;1.88;;;7.20;75.50;;;;;;5056276;28;20453;-68
2022/03/18 04:37:50;;;;;;;4.50;1.88;;;7.20;75.60;;;;;;5060598;28;20102;-69
2022/03/18 04:40:18;;;;;;;2.83;1.42;;;7.20;75.60;;;;;;5057586;28;20045;-69
2022/03/18 04:42:45;;;;;;;6.35;1.90;;;7.20;75.60;;;;;;5065294;28;20037;-70
2022/03/18 04:45:14;;;;;;;4.68;1.63;;;7.20;75.60;;;;;;5061552;28;20048;-70
2022/03/18 04:47:41;;;;;;;4.80;1.67;;;7.20;75.50;;;;;;5072294;28;20041;-69
2022/03/18 04:50:09;;;;;;;5.60;1.85;;;7.20;75.70;;;;;;5065821;28;20468;-70
2022/03/18 04:52:37;;;;;;;7.82;1.50;;;7.10;75.70;;;;;;5070057;28;20044;-69
2022/03/18 04:55:05;;;;;;;4.47;1.50;;;7.10;75.70;;;;;;5055153;28;20910;-71
2022/03/18 04:57:33;;;;;;;5.93;1.98;;;7.10;75.70;;;;;;5069035;28;20043;-70
2022/03/18 05:00:00;;;;;;;4.53;1.63;;;7.10;75.70;;;;;;5068101;28;20069;-70
2022/03/18 05:02:28;;;;;;;3.63;1.60;;;7.10;75.70;;;;;;5068660;28;20048;-69
2022/03/18 05:04:55;;;;;;;9.45;2.60;;;7.10;75.70;;;;;;5068736;28;20044;-69
2022/03/18 05:07:24;;;;;;;8.02;2.65;;;7.10;75.80;;;;;;5067705;28;20175;-69
2022/03/18 05:09:51;;;;;;;2.92;1.23;;;7.10;75.70;;;;;;5067283;28;20861;-69
2022/03/18 05:12:19;;;;;;;7.68;2.00;;;7.10;75.80;;;;;;5075592;28;20071;-69
2022/03/18 05:14:48;;;;;;;4.60;1.40;;;7.00;75.80;;;;;;5056938;28;20047;-70
2022/03/18 05:17:15;;;;;;;7.10;2.13;;;7.10;75.80;;;;;;5073378;28;20048;-69
2022/03/18 05:19:42;;;;;;;6.10;2.00;;;7.00;75.90;;;;;;5073050;28;20111;-69
2022/03/18 05:22:09;;;;;;;4.82;1.95;;;6.90;75.90;;;;;;5077691;28;20098;-69
2022/03/18 05:24:36;;;;;;;3.75;1.73;;;6.90;76.00;;;;;;5069887;28;20098;-69
2022/03/18 05:27:04;;;;;;;4.15;1.63;;;6.90;76.10;;;;;;5077174;28;20040;-71
2022/03/18 05:29:32;;;;;;;7.07;1.85;;;6.80;76.20;;;;;;5072116;28;20041;-70
2022/03/18 05:32:00;;;;;;;5.20;1.73;;;6.80;76.20;;;;;;5074695;28;20045;-70
2022/03/18 05:34:27;;;;;;;7.20;1.42;;;6.80;76.20;;;;;;5070744;28;20119;-69
2022/03/18 05:36:54;;;;;;;5.50;1.35;;;6.80;76.30;;;;;;5073110;28;20064;-70
2022/03/18 05:39:21;;;;;;;4.28;1.33;;;6.70;76.30;;;;;;5066189;28;20145;-69
2022/03/18 05:41:49;;;;;;;5.55;1.48;;;6.70;76.30;;;;;;5076990;28;20063;-69
2022/03/18 05:44:16;;;;;;;6.18;1.77;;;6.70;76.40;;;;;;5079282;28;20048;-69
2022/03/18 05:46:43;;;;;;;6.18;1.67;;;6.70;76.40;;;;;;5068565;28;20040;-69
2022/03/18 05:49:11;;;;;;;4.45;2.05;;;6.70;76.50;;;;;;5064559;28;20273;-69
2022/03/18 05:51:40;;;;;;;7.07;2.05;;;6.60;76.60;;;;;;5067329;28;20172;-69
2022/03/18 05:54:07;;;;;;;12.38;2.28;;;6.60;76.70;;;;;;5063316;28;20036;-70
2022/03/18 05:59:19;;;;;;;4.25;1.38;;;6.60;76.90;;;;;;5065781;28;20520;-69
2022/03/18 06:01:46;;;;;;;4.53;1.48;;;6.60;76.90;;;;;;5061942;28;20448;-67
2022/03/18 06:04:15;;;;;;;9.98;2.28;;;6.50;77.00;;;;;;5061353;28;20036;-70
2022/03/18 06:06:43;;;;;;;4.97;1.88;;;6.50;77.10;;;;;;5063007;28;20119;-70
2022/03/18 06:11:55;;;;;;;8.38;1.63;;;6.50;77.40;;;;;;5065454;28;20040;-69
2022/03/18 06:14:26;;;;;;;7.97;2.20;;;6.50;77.30;;;;;;5067386;28;20056;-69
2022/03/18 06:16:59;;;;;;;5.43;2.08;;;6.60;77.20;;;;;;5069930;28;20121;-69
2022/03/18 06:19:29;;;;;;;6.47;1.80;;;6.60;77.30;;;;;;5067641;28;20537;-69
2022/03/18 06:21:56;;;;;;;5.40;1.85;;;6.50;77.30;;;;;;5068058;28;20119;-69
2022/03/18 06:24:24;;;;;;;6.47;2.33;;;6.60;77.40;;;;;;5072229;28;20264;-70
2022/03/18 06:26:52;;;;;;;7.55;2.30;;;6.60;77.50;;;;;;5064109;28;20036;-68
2022/03/18 06:29:20;;;;;;;9.13;2.50;;;6.60;77.50;;;;;;5065805;28;20048;-69
2022/03/18 06:31:48;;;;;;;5.93;2.10;;;6.60;77.50;;;;;;5067261;28;20041;-71
2022/03/18 06:34:16;;;;;;;7.65;2.13;;;6.60;77.40;;;;;;5063658;28;20028;-71
2022/03/18 06:36:44;;;;;;;4.90;2.03;;;6.70;77.30;;;;;;5064054;28;20074;-70
2022/03/18 06:39:11;;;;;;;7.63;1.95;;;6.70;77.40;;;;;;5065906;28;20036;-70
2022/03/18 06:41:39;;;;;;;4.20;1.85;;;6.70;77.50;;;;;;5059167;28;20059;-69
2022/03/18 06:44:08;;;;;;;9.40;2.65;;;6.70;77.50;;;;;;5061834;28;20040;-69
2022/03/18 06:46:36;;;;;;;6.82;2.17;;;6.80;77.50;;;;;;5058258;28;20067;-70
2022/03/18 06:49:03;;;;;;;5.57;1.80;;;6.80;77.50;;;;;;5062622;28;20503;-69
2022/03/18 06:51:31;;;;;;;6.65;2.15;;;6.80;77.50;;;;;;5063775;28;20043;-69
2022/03/18 06:53:59;;;;;;;5.22;2.05;;;6.80;77.50;;;;;;5062435;28;20110;-69
2022/03/18 06:56:27;;;;;;;5.28;1.52;;;6.90;77.40;;;;;;5063002;28;20141;-69
2022/03/18 06:58:55;;;;;;;4.25;1.73;;;6.90;77.40;;;;;;5061276;28;20490;-69
2022/03/18 07:01:22;;;;;;;5.75;2.30;;;7.00;77.20;;;;;;5064377;28;20040;-69
2022/03/18 07:03:50;;;;;;;6.55;2.08;;;7.00;77.20;;;;;;5050658;28;20462;-69
2022/03/18 07:06:19;;;;;;;9.93;2.20;;;7.00;77.20;;;;;;5069834;28;20044;-69
2022/03/18 07:08:47;;;;;;;6.63;2.15;;;7.10;77.10;;;;;;5070026;28;20049;-69
2022/03/18 07:11:16;;;;;;;8.40;2.97;;;7.10;77.00;;;;;;5069702;28;20050;-69
2022/03/18 07:13:45;;;;;;;7.57;2.42;;;7.20;76.90;;;;;;5070852;28;20074;-68
2022/03/18 07:18:57;;;;;;;5.70;2.10;;;7.30;76.80;;;;;;5069869;28;20613;-71
2022/03/18 07:21:26;;;;;;;7.67;2.33;;;7.30;76.70;;;;;;5067075;28;20053;-69
2022/03/18 07:23:54;;;;;;;7.03;2.90;;;7.30;76.70;;;;;;5069342;28;20059;-69
2022/03/18 07:26:23;;;;;;;4.68;2.35;;;7.30;76.50;;;;;;5068608;28;20175;-68
2022/03/18 07:28:50;;;;;;;7.75;3.53;;;7.40;76.40;;;;;;5066973;28;20536;-70
2022/03/18 07:31:17;;;;;;;7.55;2.80;;;7.50;76.10;;;;;;5061955;28;20140;-70
2022/03/18 07:33:44;;;;;;;5.80;2.38;;;7.50;75.90;;;;;;5059980;28;20137;-68
2022/03/18 07:36:11;;;;;;;9.00;2.53;;;7.50;75.80;;;;;;5057783;28;20091;-70
2022/03/18 07:38:38;;;;;;;6.30;2.63;;;7.50;75.70;;;;;;5066669;28;20044;-69
2022/03/18 07:41:05;;;;;;;5.95;1.95;;;7.60;75.40;;;;;;5066353;28;20063;-69
2022/03/18 07:43:33;;;;;;;8.70;1.90;;;7.60;75.10;;;;;;5068123;28;20140;-69
2022/03/18 07:46:00;;;;;;;5.80;2.38;;;7.60;75.10;;;;;;5061734;28;20049;-69
2022/03/18 07:48:28;;;;;;;7.10;2.00;;;7.70;74.90;;;;;;5072902;28;20043;-69
2022/03/18 07:50:56;;;;;;;5.53;1.90;;;7.70;74.70;;;;;;5073842;28;20052;-70
2022/03/18 07:53:23;;;;;;;9.93;2.45;;;7.70;74.70;;;;;;5076579;28;20051;-70
2022/03/18 07:55:50;;;;;;;5.75;1.85;;;7.70;74.50;;;;;;5068218;28;20045;-69
2022/03/18 07:58:17;;;;;;;5.35;2.22;;;7.80;74.40;;;;;;5075265;28;20040;-70
2022/03/18 08:00:46;;;;;;;6.57;2.25;;;7.90;74.00;;;;;;5068636;28;20533;-67
2022/03/18 08:03:13;;;;;;;5.32;2.05;;;7.90;73.90;;;;;;5072360;28;20070;-70
2022/03/18 08:05:41;;;;;;;6.05;1.98;;;7.90;73.80;;;;;;5074462;28;20084;-68
2022/03/18 08:08:09;;;;;;;6.85;2.05;;;7.90;73.60;;;;;;5070473;28;20041;-69
2022/03/18 08:10:37;;;;;;;9.25;2.15;;;7.90;73.70;;;;;;5074683;28;20053;-69
2022/03/18 08:13:04;;;;;;;5.88;2.33;;;8.00;73.70;;;;;;5074204;28;20127;-70
2022/03/18 08:15:32;;;;;;;6.15;2.30;;;8.10;73.40;;;;;;5076141;28;20040;-69
2022/03/18 08:18:01;;;;;;;6.85;2.13;;;8.10;73.30;;;;;;5074656;28;20044;-69
2022/03/18 08:20:29;;;;;;;6.95;2.55;;;8.10;73.20;;;;;;5054542;28;20128;-69
2022/03/18 08:22:57;;;;;;;5.38;2.53;;;8.20;73.30;;;;;;5068185;28;20079;-70
2022/03/18 08:25:29;;;;;;;5.80;2.67;;;8.20;73.10;;;;;;5066595;28;20044;-70
2022/03/18 08:27:56;;;;;;;9.20;2.42;;;8.20;72.70;;;;;;5073256;28;20037;-69
2022/03/18 08:30:23;;;;;;;5.47;2.00;;;8.30;72.70;;;;;;5074928;28;20140;-70
2022/03/18 08:32:50;;;;;;;5.68;2.22;;;8.40;72.50;;;;;;5071705;28;20048;-67
2022/03/18 08:35:18;;;;;;;6.30;2.10;;;8.50;72.20;;;;;;5071373;28;20131;-70
2022/03/18 08:37:57;;;;;;;4.72;2.15;;;8.50;71.70;;;;;;5072985;28;20105;-69
2022/03/18 08:40:24;;;;;;;11.45;2.10;;;8.60;71.60;;;;;;5070565;28;20136;-70
2022/03/18 08:42:51;;;;;;;8.40;1.95;;;8.60;71.30;;;;;;5074858;28;20051;-70
2022/03/18 08:45:19;;;;;;;6.10;2.00;;;8.60;71.50;;;;;;5072726;28;20052;-70
2022/03/18 08:47:46;;;;;;;6.80;1.98;;;8.70;71.10;;;;;;5058924;28;20036;-68
2022/03/18 08:50:14;;;;;;;5.75;2.10;;;8.70;70.50;;;;;;5064971;28;20127;-68
2022/03/18 08:52:42;;;;;;;4.78;2.03;;;8.70;70.80;;;;;;5072143;28;20072;-69
2022/03/18 08:55:10;;;;;;;6.47;1.92;;;8.70;70.50;;;;;;5075185;28;20049;-67
2022/03/18 08:57:37;;;;;;;5.78;1.83;;;8.70;70.30;;;;;;5064520;28;20409;-68
2022/03/18 09:00:10;;;;;;;6.05;1.98;;;8.80;69.50;;;;;;5061914;28;20036;-69
2022/03/18 09:02:39;;;;;;;6.20;1.90;;;8.70;69.30;;;;;;5065677;28;20048;-64
2022/03/18 09:05:08;;;;;;;10.00;1.88;;;8.80;68.80;;;;;;5067952;28;20055;-65
2022/03/18 09:07:36;;;;;;;2.80;1.33;;;8.70;68.70;;;;;;5074395;28;20050;-65
2022/03/18 09:10:06;;;;;;;4.47;1.25;;;8.80;68.50;;;;;;5072765;28;20493;-65
2022/03/18 09:12:34;;;;;;;8.23;1.73;;;8.80;68.30;;;;;;5072565;28;20048;-63
2022/03/18 09:15:03;;;;;;;7.93;1.58;;;8.80;68.50;;;;;;5069385;28;20599;-64
2022/03/18 09:17:32;;;;;;;6.47;2.60;;;8.80;68.10;;;;;;5070367;28;20048;-65
2022/03/18 09:20:00;;;;;;;8.57;2.30;;;8.90;67.90;;;;;;5070367;28;20148;-64
2022/03/18 09:22:27;;;;;;;11.30;2.30;;;8.80;67.50;;;;;;5069522;28;20037;-65
2022/03/18 09:24:54;;;;;;;6.88;2.55;;;8.80;67.80;;;;;;5064188;28;20124;-65
2022/03/18 09:27:22;;;;;;;6.20;2.10;;;8.80;67.60;;;;;;5067584;28;20049;-63
2022/03/18 09:29:49;;;;;;;6.57;1.88;;;8.80;67.40;;;;;;5073269;28;20068;-66
2022/03/18 09:32:16;;;;;;;9.77;2.30;;;8.80;67.00;;;;;;5072864;28;20044;-63
2022/03/18 09:34:43;;;;;;;5.00;2.40;;;8.80;67.00;;;;;;5077471;28;20123;-64
2022/03/18 09:37:10;;;;;;;5.55;2.45;;;8.80;67.20;;;;;;5076457;28;20074;-64
2022/03/18 09:39:37;;;;;;;5.72;1.77;;;8.80;67.20;;;;;;5072723;28;20039;-64
2022/03/18 09:42:05;;;;;;;4.47;1.60;;;8.90;67.20;;;;;;5068099;28;20048;-64
2022/03/18 09:44:37;;;;;;;6.57;1.85;;;8.90;66.90;;;;;;5072344;28;20073;-65
2022/03/18 09:47:06;;;;;;;5.90;1.92;;;9.00;66.70;;;;;;5073079;28;20060;-64
2022/03/18 09:49:34;;;;;;;6.53;2.00;;;9.00;66.30;;;;;;5069085;28;20048;-65
2022/03/18 09:52:01;;;;;;;3.65;1.67;;;9.10;65.90;;;;;;5071161;28;20098;-65
2022/03/18 09:54:30;;;;;;;8.48;2.20;;;9.10;65.20;;;;;;5070968;28;20383;-64
2022/03/18 09:56:58;;;;;;;5.13;2.30;;;9.20;65.00;;;;;;5074337;28;20090;-65
2022/03/18 09:59:27;;;;;;;5.60;1.50;;;9.20;65.10;;;;;;5074609;28;20064;-63
2022/03/18 10:02:29;;;;;;;4.75;1.63;;;9.30;64.80;;;;;;5071208;28;20059;-65
2022/03/18 10:04:58;;;;;;;4.45;1.60;;;9.30;64.30;;;;;;5078215;28;20080;-63
2022/03/18 10:07:25;;;;;;;5.93;1.70;;;9.40;64.30;;;;;;5079928;28;20512;-63
2022/03/18 10:10:15;;;;;;;8.07;1.55;;;9.40;63.90;;;;;;5077296;28;20044;-66
2022/03/18 10:12:45;;;;;;;4.80;1.42;;;9.60;63.60;;;;;;5075227;28;20119;-64
2022/03/18 10:15:17;;;;;;;4.03;1.75;;;9.60;63.70;;;;;;5077738;28;20052;-64
2022/03/18 10:17:49;;;;;;;6.65;2.13;;;9.70;63.40;;;;;;5063148;28;20132;-64
2022/03/18 10:20:28;;;;;;;5.05;1.65;;;9.70;63.30;;;;;;5072720;28;20120;-62
2022/03/18 10:22:57;;;;;;;3.33;1.35;;;9.80;62.80;;;;;;5078277;28;20052;-66
2022/03/18 10:25:36;;;;;;;5.25;1.33;;;9.90;62.60;;;;;;5066577;28;20051;-64
2022/03/18 10:28:04;;;;;;;6.00;1.20;;;10.00;61.20;;;;;;5076484;28;20044;-63
2022/03/18 10:30:31;;;;;;;4.47;1.38;;;10.00;61.20;;;;;;5080625;28;20512;-63
2022/03/18 10:32:59;;;;;;;5.55;1.38;;;10.10;60.80;;;;;;5074372;28;20121;-67
2022/03/18 10:38:30;;;;;;;5.60;1.52;;;10.30;60.80;;;;;;5073440;28;20477;-65
2022/03/18 10:40:58;;;;;;;2.90;1.20;;;10.40;60.50;;;;;;5070347;28;20138;-64
2022/03/18 10:43:25;;;;;;;2.03;0.93;;;10.40;59.50;;;;;;5076842;28;20045;-65
2022/03/18 10:46:03;;;;;;;6.38;1.77;;;10.50;60.20;;;;;;5079185;28;20068;-66
2022/03/18 10:48:32;;;;;;;3.00;0.93;;;10.60;59.60;;;;;;5072249;28;20078;-65
2022/03/18 10:51:04;;;;;;;5.82;1.05;;;10.70;59.10;;;;;;5074433;28;20040;-66
2022/03/18 10:53:32;;;;;;;4.30;1.33;;;10.80;59.20;;;;;;5075328;28;20123;-65
2022/03/18 10:56:02;;;;;;;5.55;1.77;;;10.90;59.20;;;;;;5075228;28;20032;-63
2022/03/18 10:58:33;;;;;;;4.30;1.30;;;10.90;58.30;;;;;;5078931;28;20040;-65
2022/03/18 11:01:04;;;;;;;4.00;1.73;;;11.00;57.50;;;;;;5072388;28;20113;-65
2022/03/18 11:03:37;;;;;;;3.63;1.10;;;11.10;58.00;;;;;;5070264;28;20040;-65
2022/03/18 11:06:04;;;;;;;3.10;1.08;;;11.10;58.30;;;;;;5069996;28;20048;-63
2022/03/18 11:08:40;;;;;;;6.93;1.30;;;11.20;57.60;;;;;;5072709;28;20103;-64
2022/03/18 11:11:14;;;;;;;4.85;1.40;;;11.20;58.00;;;;;;5076269;28;20079;-66
2022/03/18 11:13:50;;;;;;;3.00;1.05;;;11.30;56.60;;;;;;5075000;28;20032;-63
2022/03/18 11:16:23;;;;;;;3.58;1.23;;;11.40;57.20;;;;;;5076245;28;20067;-65
2022/03/18 11:18:52;;;;;;;5.35;1.02;;;11.40;57.10;;;;;;5072235;28;20201;-62
2022/03/18 11:21:21;;;;;;;2.83;0.93;;;11.50;55.40;;;;;;5076779;28;20040;-65
2022/03/18 11:23:49;;;;;;;3.33;1.27;;;11.50;55.80;;;;;;5073225;28;20564;-64
2022/03/18 11:26:18;;;;;;;2.13;0.95;;;11.50;56.60;;;;;;5058319;28;20156;-64
2022/03/18 11:28:45;;;;;;;2.40;0.90;;;11.60;56.70;;;;;;5064163;28;20042;-63
2022/03/18 11:31:17;;;;;;;1.63;0.70;;;11.60;56.00;;;;;;5076615;28;20044;-63
2022/03/18 11:34:09;;;;;;;6.13;1.00;;;11.60;54.40;;;;;;5073988;28;20041;-65
2022/03/18 11:36:37;;;;;;;5.47;1.10;;;11.70;54.30;;;;;;5076457;28;20083;-65
2022/03/18 11:39:07;;;;;;;5.35;1.20;;;11.70;54.50;;;;;;5070971;28;20136;-64
2022/03/18 11:41:56;;;;;;;2.95;1.10;;;11.70;54.20;;;;;;5074407;28;20139;-64
2022/03/18 11:44:46;;;;;;;3.92;1.10;;;11.70;52.30;;;;;;5075756;28;20049;-64
2022/03/18 11:47:44;;;;;;;1.95;0.80;;;11.70;52.90;;;;;;5074704;28;20056;-65
2022/03/18 11:50:47;;;;;;;5.03;0.88;;;11.70;53.30;;;;;;5076662;28;20036;-65
2022/03/18 11:53:51;;;;;;;3.58;1.35;;;11.70;51.50;;;;;;5078559;28;20036;-62
2022/03/18 11:56:23;;;;;;;2.42;0.80;;;11.80;52.30;;;;;;5071479;28;20040;-65
2022/03/18 11:58:50;;;;;;;3.70;0.77;;;11.80;50.80;;;;;;5073702;28;20041;-64
2022/03/18 12:01:39;;;;;;;3.03;1.10;;;11.80;51.60;;;;;;5070200;28;20095;-63
2022/03/18 12:04:07;;;;;;;5.32;0.77;;;11.80;50.80;;;;;;5070857;28;20036;-65
2022/03/18 12:06:34;;;;;;;4.28;0.60;;;11.90;51.40;;;;;;5071333;28;20561;-63
2022/03/18 12:09:03;;;;;;;1.80;0.75;;;11.90;51.80;;;;;;5072261;28;20046;-64
2022/03/18 12:11:38;;;;;;;2.20;1.02;;;11.90;52.50;;;;;;5072443;28;20036;-66
2022/03/18 12:14:10;;;;;;;3.47;1.00;;;11.90;52.70;;;;;;5076874;28;20072;-65
2022/03/18 12:16:37;;;;;;;1.88;0.68;;;11.90;51.90;;;;;;5069107;28;20041;-64
2022/03/18 12:19:12;;;;;;;1.55;0.68;;;11.90;52.10;;;;;;5074618;28;20052;-64
2022/03/18 12:21:44;;;;;;;2.22;0.73;;;12.00;50.80;;;;;;5078359;28;20043;-64
2022/03/18 12:24:14;;;;;;;3.22;0.45;;;12.00;51.30;;;;;;5073531;28;20401;-64
2022/03/18 12:26:41;;;;;;;4.53;0.73;;;12.00;51.60;;;;;;5070751;28;20044;-65
2022/03/18 12:29:09;;;;;;;1.23;0.50;;;12.10;50.10;;;;;;5067790;28;20059;-65
2022/03/18 12:31:38;;;;;;;4.53;0.60;;;12.10;50.50;;;;;;5076776;28;20047;-66
2022/03/18 12:34:08;;;;;;;5.38;0.93;;;12.10;50.70;;;;;;5071940;28;20472;-64
2022/03/18 12:36:40;;;;;;;2.42;0.73;;;12.10;49.90;;;;;;5071114;28;20411;-66
2022/03/18 12:39:09;;;;;;;2.08;0.90;;;12.10;49.70;;;;;;5067373;28;20071;-65
2022/03/18 12:41:38;;;;;;;4.95;0.88;;;12.10;49.20;;;;;;5068018;28;20050;-65
2022/03/18 12:44:05;;;;;;;4.03;0.85;;;12.10;49.60;;;;;;5067869;28;20501;-65
2022/03/18 12:46:34;;;;;;;4.38;0.80;;;12.20;48.30;;;;;;5068505;28;20056;-64
2022/03/18 12:49:01;;;;;;;3.13;0.68;;;12.20;49.60;;;;;;5065727;28;20078;-65
2022/03/18 12:51:29;;;;;;;1.52;0.85;;;12.20;49.60;;;;;;5067173;28;20040;-63
2022/03/18 12:53:58;;;;;;;2.78;0.70;;;12.20;50.20;;;;;;5067147;28;20040;-63
2022/03/18 12:56:47;;;;;;;3.35;0.82;;;12.20;48.80;;;;;;5056054;28;20388;-65
2022/03/18 12:59:16;;;;;;;3.83;0.75;;;12.20;49.80;;;;;;5065510;28;20147;-63
2022/03/18 13:01:54;;;;;;;2.45;0.95;;;12.20;50.00;;;;;;5046700;28;20903;-66
2022/03/18 13:04:22;;;;;;;5.00;0.80;;;12.20;49.70;;;;;;5058632;28;20040;-65
2022/03/18 13:06:54;;;;;;;4.63;0.93;;;12.20;49.60;;;;;;5069571;28;20040;-63
2022/03/18 13:09:21;;;;;;;2.20;0.68;;;12.10;50.90;;;;;;5068598;28;20134;-65
2022/03/18 13:11:50;;;;;;;5.30;1.20;;;12.20;50.40;;;;;;5067232;28;20127;-64
2022/03/18 13:14:30;;;;;;;1.85;0.70;;;12.10;50.60;;;;;;5065501;28;20098;-63
2022/03/18 13:16:57;;;;;;;2.45;1.02;;;12.10;50.80;;;;;;5067011;28;20036;-64
2022/03/18 13:19:41;;;;;;;4.28;0.90;;;12.20;49.90;;;;;;5066963;28;20044;-65
2022/03/18 13:22:08;;;;;;;2.40;0.80;;;12.20;49.80;;;;;;5068357;28;20048;-65
2022/03/18 13:24:35;;;;;;;4.10;0.70;;;12.20;51.40;;;;;;5049465;28;20127;-63